sensor_id;sensor_type;location;lat;lon;timestamp;P1;durP1;ratioP1;P2;durP2;ratioP2
20725;SDS011;10524;48.132;8.518;2023-04-25T00:01:45;7.22;;;4.47;;
20725;SDS011;10524;48.132;8.518;2023-04-25T00:04:11;7.40;;;4.25;;
20725;SDS011;10524;48.132;8.518;2023-04-25T00:06:37;6.95;;;4.50;;
20725;SDS011;10524;48.132;8.518;2023-04-25T00:09:04;5.45;;;4.20;;
20725;SDS011;10524;48.132;8.518;2023-04-25T00:11:32;8.27;;;4.43;;
20725;SDS011;10524;48.132;8.518;2023-04-25T00:13:58;6.65;;;4.47;;
20725;SDS011;10524;48.132;8.518;2023-04-25T00:16:26;8.20;;;4.55;;
20725;SDS011;10524;48.132;8.518;2023-04-25T00:18:53;7.57;;;4.88;;
20725;SDS011;10524;48.132;8.518;2023-04-25T00:21:20;7.38;;;4.90;;
20725;SDS011;10524;48.132;8.518;2023-04-25T00:23:45;7.30;;;4.78;;
20725;SDS011;10524;48.132;8.518;2023-04-25T00:26:11;6.68;;;4.53;;
20725;SDS011;10524;48.132;8.518;2023-04-25T00:28:38;9.63;;;4.72;;
20725;SDS011;10524;48.132;8.518;2023-04-25T00:31:05;7.53;;;4.50;;
20725;SDS011;10524;48.132;8.518;2023-04-25T00:33:30;6.72;;;4.43;;
20725;SDS011;10524;48.132;8.518;2023-04-25T00:35:56;8.30;;;4.20;;
20725;SDS011;10524;48.132;8.518;2023-04-25T00:38:22;9.75;;;4.43;;
20725;SDS011;10524;48.132;8.518;2023-04-25T00:40:47;7.47;;;4.60;;
20725;SDS011;10524;48.132;8.518;2023-04-25T00:43:13;6.65;;;4.47;;
20725;SDS011;10524;48.132;8.518;2023-04-25T00:45:39;7.05;;;4.43;;
20725;SDS011;10524;48.132;8.518;2023-04-25T00:48:05;7.60;;;4.25;;
20725;SDS011;10524;48.132;8.518;2023-04-25T00:50:32;9.10;;;4.35;;
20725;SDS011;10524;48.132;8.518;2023-04-25T00:52:59;5.82;;;4.15;;
20725;SDS011;10524;48.132;8.518;2023-04-25T00:55:25;9.98;;;4.00;;
20725;SDS011;10524;48.132;8.518;2023-04-25T00:57:51;7.75;;;4.28;;
20725;SDS011;10524;48.132;8.518;2023-04-25T01:00:17;6.07;;;3.75;;
20725;SDS011;10524;48.132;8.518;2023-04-25T01:02:43;8.88;;;4.20;;
20725;SDS011;10524;48.132;8.518;2023-04-25T01:05:09;7.32;;;4.38;;
20725;SDS011;10524;48.132;8.518;2023-04-25T01:07:37;6.53;;;4.70;;
20725;SDS011;10524;48.132;8.518;2023-04-25T01:10:03;5.70;;;4.38;;
20725;SDS011;10524;48.132;8.518;2023-04-25T01:12:31;7.22;;;4.15;;
20725;SDS011;10524;48.132;8.518;2023-04-25T01:14:57;8.20;;;4.70;;
20725;SDS011;10524;48.132;8.518;2023-04-25T01:17:22;6.97;;;4.00;;
20725;SDS011;10524;48.132;8.518;2023-04-25T01:19:49;8.93;;;4.72;;
20725;SDS011;10524;48.132;8.518;2023-04-25T01:22:15;8.10;;;4.47;;
20725;SDS011;10524;48.132;8.518;2023-04-25T01:24:41;9.70;;;5.20;;
20725;SDS011;10524;48.132;8.518;2023-04-25T01:27:08;6.85;;;5.05;;
20725;SDS011;10524;48.132;8.518;2023-04-25T01:29:36;7.47;;;5.28;;
20725;SDS011;10524;48.132;8.518;2023-04-25T01:32:02;8.20;;;5.40;;
20725;SDS011;10524;48.132;8.518;2023-04-25T01:34:29;8.38;;;5.50;;
20725;SDS011;10524;48.132;8.518;2023-04-25T01:36:55;11.13;;;5.80;;
20725;SDS011;10524;48.132;8.518;2023-04-25T01:39:20;7.05;;;5.28;;
20725;SDS011;10524;48.132;8.518;2023-04-25T01:41:46;6.43;;;4.82;;
20725;SDS011;10524;48.132;8.518;2023-04-25T01:44:13;9.80;;;5.90;;
20725;SDS011;10524;48.132;8.518;2023-04-25T01:46:39;7.18;;;5.93;;
20725;SDS011;10524;48.132;8.518;2023-04-25T01:49:04;9.18;;;6.10;;
20725;SDS011;10524;48.132;8.518;2023-04-25T01:51:30;9.20;;;5.82;;
20725;SDS011;10524;48.132;8.518;2023-04-25T01:53:56;10.52;;;6.45;;
20725;SDS011;10524;48.132;8.518;2023-04-25T01:56:22;11.00;;;5.95;;
20725;SDS011;10524;48.132;8.518;2023-04-25T01:58:48;9.55;;;6.32;;
20725;SDS011;10524;48.132;8.518;2023-04-25T02:01:14;8.98;;;6.25;;
20725;SDS011;10524;48.132;8.518;2023-04-25T02:03:40;10.60;;;5.90;;
20725;SDS011;10524;48.132;8.518;2023-04-25T02:06:05;9.73;;;5.63;;
20725;SDS011;10524;48.132;8.518;2023-04-25T02:08:31;14.57;;;6.13;;
20725;SDS011;10524;48.132;8.518;2023-04-25T02:10:57;11.65;;;6.75;;
20725;SDS011;10524;48.132;8.518;2023-04-25T02:13:23;9.88;;;6.47;;
20725;SDS011;10524;48.132;8.518;2023-04-25T02:15:48;9.82;;;6.22;;
20725;SDS011;10524;48.132;8.518;2023-04-25T02:18:14;11.20;;;6.63;;
20725;SDS011;10524;48.132;8.518;2023-04-25T02:20:41;12.95;;;6.80;;
20725;SDS011;10524;48.132;8.518;2023-04-25T02:23:07;10.85;;;6.72;;
20725;SDS011;10524;48.132;8.518;2023-04-25T02:25:33;10.60;;;6.60;;
20725;SDS011;10524;48.132;8.518;2023-04-25T02:27:59;10.02;;;6.32;;
20725;SDS011;10524;48.132;8.518;2023-04-25T02:30:25;10.98;;;6.40;;
20725;SDS011;10524;48.132;8.518;2023-04-25T02:32:51;9.18;;;6.18;;
20725;SDS011;10524;48.132;8.518;2023-04-25T02:35:16;10.77;;;6.70;;
20725;SDS011;10524;48.132;8.518;2023-04-25T02:37:42;11.23;;;7.03;;
20725;SDS011;10524;48.132;8.518;2023-04-25T02:40:08;8.57;;;5.97;;
20725;SDS011;10524;48.132;8.518;2023-04-25T02:42:34;8.70;;;5.68;;
20725;SDS011;10524;48.132;8.518;2023-04-25T02:45:00;8.75;;;6.53;;
20725;SDS011;10524;48.132;8.518;2023-04-25T02:47:27;9.68;;;6.45;;
20725;SDS011;10524;48.132;8.518;2023-04-25T02:49:53;12.30;;;6.47;;
20725;SDS011;10524;48.132;8.518;2023-04-25T02:52:18;10.05;;;6.40;;
20725;SDS011;10524;48.132;8.518;2023-04-25T02:54:44;13.18;;;6.30;;
20725;SDS011;10524;48.132;8.518;2023-04-25T02:57:10;13.32;;;7.57;;
20725;SDS011;10524;48.132;8.518;2023-04-25T02:59:35;14.68;;;6.93;;
20725;SDS011;10524;48.132;8.518;2023-04-25T03:02:01;13.07;;;6.47;;
20725;SDS011;10524;48.132;8.518;2023-04-25T03:04:26;10.20;;;6.40;;
20725;SDS011;10524;48.132;8.518;2023-04-25T03:06:52;12.20;;;6.82;;
20725;SDS011;10524;48.132;8.518;2023-04-25T03:09:18;11.32;;;6.60;;
20725;SDS011;10524;48.132;8.518;2023-04-25T03:11:45;10.85;;;6.15;;
20725;SDS011;10524;48.132;8.518;2023-04-25T03:14:11;12.13;;;6.50;;
20725;SDS011;10524;48.132;8.518;2023-04-25T03:16:37;11.05;;;7.03;;
20725;SDS011;10524;48.132;8.518;2023-04-25T03:19:03;9.55;;;6.32;;
20725;SDS011;10524;48.132;8.518;2023-04-25T03:21:29;13.63;;;7.10;;
20725;SDS011;10524;48.132;8.518;2023-04-25T03:23:56;10.55;;;6.97;;
20725;SDS011;10524;48.132;8.518;2023-04-25T03:26:22;9.75;;;7.05;;
20725;SDS011;10524;48.132;8.518;2023-04-25T03:28:48;13.30;;;7.35;;
20725;SDS011;10524;48.132;8.518;2023-04-25T03:31:14;14.60;;;6.93;;
20725;SDS011;10524;48.132;8.518;2023-04-25T03:33:39;14.50;;;8.02;;
20725;SDS011;10524;48.132;8.518;2023-04-25T03:36:05;14.60;;;7.43;;
20725;SDS011;10524;48.132;8.518;2023-04-25T03:38:31;14.90;;;7.75;;
20725;SDS011;10524;48.132;8.518;2023-04-25T03:40:57;14.45;;;8.20;;
20725;SDS011;10524;48.132;8.518;2023-04-25T03:43:22;12.30;;;7.95;;
20725;SDS011;10524;48.132;8.518;2023-04-25T03:45:48;12.80;;;8.13;;
20725;SDS011;10524;48.132;8.518;2023-04-25T03:48:14;11.63;;;7.38;;
20725;SDS011;10524;48.132;8.518;2023-04-25T03:50:40;13.95;;;7.80;;
20725;SDS011;10524;48.132;8.518;2023-04-25T03:53:05;13.45;;;7.95;;
20725;SDS011;10524;48.132;8.518;2023-04-25T03:55:31;16.48;;;8.40;;
20725;SDS011;10524;48.132;8.518;2023-04-25T03:57:57;9.73;;;7.70;;
20725;SDS011;10524;48.132;8.518;2023-04-25T04:00:23;18.50;;;8.23;;
20725;SDS011;10524;48.132;8.518;2023-04-25T04:02:49;14.25;;;8.07;;
20725;SDS011;10524;48.132;8.518;2023-04-25T04:05:15;14.07;;;8.40;;
20725;SDS011;10524;48.132;8.518;2023-04-25T04:07:41;13.90;;;7.57;;
20725;SDS011;10524;48.132;8.518;2023-04-25T04:10:07;15.38;;;7.88;;
20725;SDS011;10524;48.132;8.518;2023-04-25T04:12:37;13.15;;;7.82;;
20725;SDS011;10524;48.132;8.518;2023-04-25T04:15:06;13.45;;;8.02;;
20725;SDS011;10524;48.132;8.518;2023-04-25T04:17:32;14.63;;;8.57;;
20725;SDS011;10524;48.132;8.518;2023-04-25T04:19:58;10.73;;;8.18;;
20725;SDS011;10524;48.132;8.518;2023-04-25T04:22:24;14.63;;;8.88;;
20725;SDS011;10524;48.132;8.518;2023-04-25T04:24:50;17.08;;;9.32;;
20725;SDS011;10524;48.132;8.518;2023-04-25T04:27:18;13.63;;;8.73;;
20725;SDS011;10524;48.132;8.518;2023-04-25T04:29:44;15.43;;;8.90;;
20725;SDS011;10524;48.132;8.518;2023-04-25T04:32:11;11.77;;;8.45;;
20725;SDS011;10524;48.132;8.518;2023-04-25T04:34:37;13.57;;;9.27;;
20725;SDS011;10524;48.132;8.518;2023-04-25T04:37:04;14.40;;;9.20;;
20725;SDS011;10524;48.132;8.518;2023-04-25T04:39:31;11.82;;;8.57;;
20725;SDS011;10524;48.132;8.518;2023-04-25T04:42:00;15.00;;;9.30;;
20725;SDS011;10524;48.132;8.518;2023-04-25T04:44:29;14.52;;;9.30;;
20725;SDS011;10524;48.132;8.518;2023-04-25T04:46:57;15.63;;;9.10;;
20725;SDS011;10524;48.132;8.518;2023-04-25T04:49:23;12.93;;;8.05;;
20725;SDS011;10524;48.132;8.518;2023-04-25T04:51:49;13.00;;;7.95;;
20725;SDS011;10524;48.132;8.518;2023-04-25T04:54:15;9.05;;;7.00;;
20725;SDS011;10524;48.132;8.518;2023-04-25T04:56:40;12.27;;;7.15;;
20725;SDS011;10524;48.132;8.518;2023-04-25T04:59:06;11.63;;;7.85;;
20725;SDS011;10524;48.132;8.518;2023-04-25T05:01:32;11.85;;;7.57;;
20725;SDS011;10524;48.132;8.518;2023-04-25T05:04:00;10.77;;;6.57;;
20725;SDS011;10524;48.132;8.518;2023-04-25T05:06:27;9.55;;;6.97;;
20725;SDS011;10524;48.132;8.518;2023-04-25T05:08:54;9.63;;;7.22;;
20725;SDS011;10524;48.132;8.518;2023-04-25T05:11:20;11.25;;;7.47;;
20725;SDS011;10524;48.132;8.518;2023-04-25T05:13:46;11.32;;;7.75;;
20725;SDS011;10524;48.132;8.518;2023-04-25T05:16:12;13.45;;;8.63;;
20725;SDS011;10524;48.132;8.518;2023-04-25T05:18:41;11.55;;;8.15;;
20725;SDS011;10524;48.132;8.518;2023-04-25T05:21:07;14.15;;;8.98;;
20725;SDS011;10524;48.132;8.518;2023-04-25T05:23:32;12.85;;;8.77;;
20725;SDS011;10524;48.132;8.518;2023-04-25T05:25:58;13.60;;;9.52;;
20725;SDS011;10524;48.132;8.518;2023-04-25T05:28:24;13.05;;;8.90;;
20725;SDS011;10524;48.132;8.518;2023-04-25T05:30:50;11.55;;;8.55;;
20725;SDS011;10524;48.132;8.518;2023-04-25T05:33:15;11.45;;;9.05;;
20725;SDS011;10524;48.132;8.518;2023-04-25T05:35:42;10.35;;;8.07;;
20725;SDS011;10524;48.132;8.518;2023-04-25T05:38:07;8.45;;;6.55;;
20725;SDS011;10524;48.132;8.518;2023-04-25T05:40:33;8.65;;;6.63;;
20725;SDS011;10524;48.132;8.518;2023-04-25T05:42:59;9.90;;;6.47;;
20725;SDS011;10524;48.132;8.518;2023-04-25T05:45:25;10.15;;;6.95;;
20725;SDS011;10524;48.132;8.518;2023-04-25T05:47:50;11.48;;;7.53;;
20725;SDS011;10524;48.132;8.518;2023-04-25T05:50:16;11.50;;;7.50;;
20725;SDS011;10524;48.132;8.518;2023-04-25T05:52:42;9.85;;;6.93;;
20725;SDS011;10524;48.132;8.518;2023-04-25T05:55:07;11.00;;;6.97;;
20725;SDS011;10524;48.132;8.518;2023-04-25T05:57:33;8.05;;;6.55;;
20725;SDS011;10524;48.132;8.518;2023-04-25T05:59:59;9.52;;;6.45;;
20725;SDS011;10524;48.132;8.518;2023-04-25T06:02:25;9.57;;;6.13;;
20725;SDS011;10524;48.132;8.518;2023-04-25T06:04:51;8.18;;;5.20;;
20725;SDS011;10524;48.132;8.518;2023-04-25T06:07:17;8.82;;;6.03;;
20725;SDS011;10524;48.132;8.518;2023-04-25T06:09:46;7.22;;;5.40;;
20725;SDS011;10524;48.132;8.518;2023-04-25T06:12:12;9.27;;;5.47;;
20725;SDS011;10524;48.132;8.518;2023-04-25T06:14:38;10.15;;;5.15;;
20725;SDS011;10524;48.132;8.518;2023-04-25T06:17:03;6.93;;;5.25;;
20725;SDS011;10524;48.132;8.518;2023-04-25T06:19:33;7.53;;;4.82;;
20725;SDS011;10524;48.132;8.518;2023-04-25T06:22:00;8.02;;;4.88;;
20725;SDS011;10524;48.132;8.518;2023-04-25T06:24:26;7.63;;;4.90;;
20725;SDS011;10524;48.132;8.518;2023-04-25T06:26:51;8.40;;;5.25;;
20725;SDS011;10524;48.132;8.518;2023-04-25T06:29:18;6.75;;;5.05;;
20725;SDS011;10524;48.132;8.518;2023-04-25T06:31:43;9.30;;;5.43;;
20725;SDS011;10524;48.132;8.518;2023-04-25T06:34:09;6.97;;;5.03;;
20725;SDS011;10524;48.132;8.518;2023-04-25T06:36:35;6.25;;;4.53;;
20725;SDS011;10524;48.132;8.518;2023-04-25T06:39:01;8.63;;;5.10;;
20725;SDS011;10524;48.132;8.518;2023-04-25T06:41:27;7.78;;;5.45;;
20725;SDS011;10524;48.132;8.518;2023-04-25T06:43:52;8.13;;;5.82;;
20725;SDS011;10524;48.132;8.518;2023-04-25T06:46:18;8.77;;;5.68;;
20725;SDS011;10524;48.132;8.518;2023-04-25T06:48:43;6.35;;;5.30;;
20725;SDS011;10524;48.132;8.518;2023-04-25T06:51:09;11.73;;;5.97;;
20725;SDS011;10524;48.132;8.518;2023-04-25T06:53:35;7.65;;;5.70;;
20725;SDS011;10524;48.132;8.518;2023-04-25T06:56:01;8.40;;;5.78;;
20725;SDS011;10524;48.132;8.518;2023-04-25T06:58:27;9.32;;;5.60;;
20725;SDS011;10524;48.132;8.518;2023-04-25T07:00:52;8.20;;;6.00;;
20725;SDS011;10524;48.132;8.518;2023-04-25T07:03:18;9.70;;;6.10;;
20725;SDS011;10524;48.132;8.518;2023-04-25T07:05:43;9.50;;;6.10;;
20725;SDS011;10524;48.132;8.518;2023-04-25T07:08:10;12.07;;;6.00;;
20725;SDS011;10524;48.132;8.518;2023-04-25T07:10:36;9.38;;;6.45;;
20725;SDS011;10524;48.132;8.518;2023-04-25T07:13:02;8.60;;;5.13;;
20725;SDS011;10524;48.132;8.518;2023-04-25T07:15:27;11.85;;;6.40;;
20725;SDS011;10524;48.132;8.518;2023-04-25T07:17:53;13.15;;;6.25;;
20725;SDS011;10524;48.132;8.518;2023-04-25T07:20:19;12.88;;;6.95;;
20725;SDS011;10524;48.132;8.518;2023-04-25T07:22:44;11.18;;;6.32;;
20725;SDS011;10524;48.132;8.518;2023-04-25T07:25:10;9.55;;;6.35;;
20725;SDS011;10524;48.132;8.518;2023-04-25T07:27:36;9.93;;;6.38;;
20725;SDS011;10524;48.132;8.518;2023-04-25T07:30:02;8.75;;;6.18;;
20725;SDS011;10524;48.132;8.518;2023-04-25T07:32:28;7.32;;;4.85;;
20725;SDS011;10524;48.132;8.518;2023-04-25T07:34:54;6.85;;;4.65;;
20725;SDS011;10524;48.132;8.518;2023-04-25T07:37:20;5.80;;;4.10;;
20725;SDS011;10524;48.132;8.518;2023-04-25T07:39:46;4.85;;;3.85;;
20725;SDS011;10524;48.132;8.518;2023-04-25T07:42:12;7.45;;;4.15;;
20725;SDS011;10524;48.132;8.518;2023-04-25T07:44:38;4.72;;;3.75;;
20725;SDS011;10524;48.132;8.518;2023-04-25T07:47:08;5.78;;;4.00;;
20725;SDS011;10524;48.132;8.518;2023-04-25T07:49:35;5.25;;;3.88;;
20725;SDS011;10524;48.132;8.518;2023-04-25T07:52:02;4.72;;;3.25;;
20725;SDS011;10524;48.132;8.518;2023-04-25T07:54:28;3.83;;;3.25;;
20725;SDS011;10524;48.132;8.518;2023-04-25T07:56:54;4.78;;;3.83;;
20725;SDS011;10524;48.132;8.518;2023-04-25T07:59:20;5.57;;;3.40;;
20725;SDS011;10524;48.132;8.518;2023-04-25T08:01:46;4.03;;;2.90;;
20725;SDS011;10524;48.132;8.518;2023-04-25T08:04:12;4.35;;;3.38;;
20725;SDS011;10524;48.132;8.518;2023-04-25T08:06:38;4.22;;;2.95;;
20725;SDS011;10524;48.132;8.518;2023-04-25T08:09:03;4.53;;;3.90;;
20725;SDS011;10524;48.132;8.518;2023-04-25T08:11:29;3.92;;;3.20;;
20725;SDS011;10524;48.132;8.518;2023-04-25T08:13:55;3.10;;;2.80;;
20725;SDS011;10524;48.132;8.518;2023-04-25T08:16:20;4.35;;;2.90;;
20725;SDS011;10524;48.132;8.518;2023-04-25T08:18:46;4.15;;;3.45;;
20725;SDS011;10524;48.132;8.518;2023-04-25T08:21:11;4.82;;;3.63;;
20725;SDS011;10524;48.132;8.518;2023-04-25T08:23:37;5.45;;;3.70;;
20725;SDS011;10524;48.132;8.518;2023-04-25T08:26:03;2.97;;;2.55;;
20725;SDS011;10524;48.132;8.518;2023-04-25T08:28:30;3.03;;;2.72;;
20725;SDS011;10524;48.132;8.518;2023-04-25T08:30:56;4.55;;;2.80;;
20725;SDS011;10524;48.132;8.518;2023-04-25T08:33:21;2.95;;;2.20;;
20725;SDS011;10524;48.132;8.518;2023-04-25T08:35:47;2.33;;;1.80;;
20725;SDS011;10524;48.132;8.518;2023-04-25T08:38:12;1.63;;;1.52;;
20725;SDS011;10524;48.132;8.518;2023-04-25T08:40:39;1.52;;;1.27;;
20725;SDS011;10524;48.132;8.518;2023-04-25T08:43:06;1.08;;;0.88;;
20725;SDS011;10524;48.132;8.518;2023-04-25T08:45:38;0.80;;;0.80;;
20725;SDS011;10524;48.132;8.518;2023-04-25T08:48:08;1.20;;;1.00;;
20725;SDS011;10524;48.132;8.518;2023-04-25T08:51:12;1.00;;;0.90;;
20725;SDS011;10524;48.132;8.518;2023-04-25T08:53:32;0.70;;;0.70;;
20725;SDS011;10524;48.132;8.518;2023-04-25T08:56:00;2.22;;;0.90;;
20725;SDS011;10524;48.132;8.518;2023-04-25T08:58:29;1.02;;;0.80;;
20725;SDS011;10524;48.132;8.518;2023-04-25T09:00:55;0.88;;;0.70;;
20725;SDS011;10524;48.132;8.518;2023-04-25T09:03:21;0.63;;;0.60;;
20725;SDS011;10524;48.132;8.518;2023-04-25T09:05:46;0.43;;;0.40;;
20725;SDS011;10524;48.132;8.518;2023-04-25T09:08:12;0.50;;;0.50;;
20725;SDS011;10524;48.132;8.518;2023-04-25T09:10:38;0.90;;;0.55;;
20725;SDS011;10524;48.132;8.518;2023-04-25T09:13:07;0.40;;;0.40;;
20725;SDS011;10524;48.132;8.518;2023-04-25T09:15:49;0.35;;;0.35;;
20725;SDS011;10524;48.132;8.518;2023-04-25T09:18:25;0.30;;;0.30;;
20725;SDS011;10524;48.132;8.518;2023-04-25T09:20:53;0.70;;;0.40;;
20725;SDS011;10524;48.132;8.518;2023-04-25T09:23:20;0.40;;;0.40;;
20725;SDS011;10524;48.132;8.518;2023-04-25T09:25:51;0.32;;;0.32;;
20725;SDS011;10524;48.132;8.518;2023-04-25T09:28:25;0.40;;;0.40;;
20725;SDS011;10524;48.132;8.518;2023-04-25T09:30:58;0.30;;;0.30;;
20725;SDS011;10524;48.132;8.518;2023-04-25T09:33:30;0.30;;;0.30;;
20725;SDS011;10524;48.132;8.518;2023-04-25T09:36:07;0.30;;;0.30;;
20725;SDS011;10524;48.132;8.518;2023-04-25T09:38:43;0.30;;;0.30;;
20725;SDS011;10524;48.132;8.518;2023-04-25T09:41:11;0.80;;;0.73;;
20725;SDS011;10524;48.132;8.518;2023-04-25T09:43:37;0.60;;;0.60;;
20725;SDS011;10524;48.132;8.518;2023-04-25T09:46:10;0.63;;;0.40;;
20725;SDS011;10524;48.132;8.518;2023-04-25T09:48:38;0.75;;;0.75;;
20725;SDS011;10524;48.132;8.518;2023-04-25T09:53:37;0.60;;;0.60;;
20725;SDS011;10524;48.132;8.518;2023-04-25T09:56:07;8.18;;;5.65;;
20725;SDS011;10524;48.132;8.518;2023-04-25T09:58:35;0.70;;;0.60;;
20725;SDS011;10524;48.132;8.518;2023-04-25T10:01:07;0.80;;;0.80;;
20725;SDS011;10524;48.132;8.518;2023-04-25T10:03:37;0.50;;;0.50;;
20725;SDS011;10524;48.132;8.518;2023-04-25T10:06:07;0.40;;;0.40;;
20725;SDS011;10524;48.132;8.518;2023-04-25T10:08:43;0.28;;;0.20;;
20725;SDS011;10524;48.132;8.518;2023-04-25T10:11:09;22.42;;;11.75;;
20725;SDS011;10524;48.132;8.518;2023-04-25T10:13:36;0.60;;;0.52;;
20725;SDS011;10524;48.132;8.518;2023-04-25T10:16:03;2.50;;;1.60;;
20725;SDS011;10524;48.132;8.518;2023-04-25T10:18:32;1.10;;;0.80;;
20725;SDS011;10524;48.132;8.518;2023-04-25T10:20:58;1.90;;;1.25;;
20725;SDS011;10524;48.132;8.518;2023-04-25T10:23:25;1.45;;;1.35;;
20725;SDS011;10524;48.132;8.518;2023-04-25T10:25:52;1.30;;;1.20;;
20725;SDS011;10524;48.132;8.518;2023-04-25T10:28:19;0.47;;;0.40;;
20725;SDS011;10524;48.132;8.518;2023-04-25T10:31:03;0.50;;;0.40;;
20725;SDS011;10524;48.132;8.518;2023-04-25T10:33:33;0.40;;;0.40;;
20725;SDS011;10524;48.132;8.518;2023-04-25T10:36:10;0.50;;;0.30;;
20725;SDS011;10524;48.132;8.518;2023-04-25T10:38:36;0.20;;;0.20;;
20725;SDS011;10524;48.132;8.518;2023-04-25T10:41:06;0.15;;;0.15;;
20725;SDS011;10524;48.132;8.518;2023-04-25T10:46:13;0.55;;;0.20;;
20725;SDS011;10524;48.132;8.518;2023-04-25T10:48:43;1.65;;;1.33;;
20725;SDS011;10524;48.132;8.518;2023-04-25T10:51:17;0.15;;;0.15;;
20725;SDS011;10524;48.132;8.518;2023-04-25T10:53:46;0.80;;;0.80;;
20725;SDS011;10524;48.132;8.518;2023-04-25T10:56:31;0.20;;;0.20;;
20725;SDS011;10524;48.132;8.518;2023-04-25T10:59:10;0.75;;;0.50;;
20725;SDS011;10524;48.132;8.518;2023-04-25T11:01:42;0.50;;;0.50;;
20725;SDS011;10524;48.132;8.518;2023-04-25T11:09:48;1.27;;;1.17;;
20725;SDS011;10524;48.132;8.518;2023-04-25T11:12:14;0.30;;;0.30;;
20725;SDS011;10524;48.132;8.518;2023-04-25T11:14:41;0.60;;;0.60;;
20725;SDS011;10524;48.132;8.518;2023-04-25T11:17:07;0.80;;;0.80;;
20725;SDS011;10524;48.132;8.518;2023-04-25T11:19:32;0.40;;;0.40;;
20725;SDS011;10524;48.132;8.518;2023-04-25T11:21:58;1.00;;;1.00;;
20725;SDS011;10524;48.132;8.518;2023-04-25T11:24:26;0.70;;;0.70;;
20725;SDS011;10524;48.132;8.518;2023-04-25T11:26:53;0.60;;;0.60;;
20725;SDS011;10524;48.132;8.518;2023-04-25T11:29:21;1.42;;;1.02;;
20725;SDS011;10524;48.132;8.518;2023-04-25T11:31:48;1.42;;;1.33;;
20725;SDS011;10524;48.132;8.518;2023-04-25T11:34:17;1.85;;;1.02;;
20725;SDS011;10524;48.132;8.518;2023-04-25T11:36:45;0.90;;;0.87;;
20725;SDS011;10524;48.132;8.518;2023-04-25T11:39:11;1.00;;;1.00;;
20725;SDS011;10524;48.132;8.518;2023-04-25T11:41:37;1.27;;;1.10;;
20725;SDS011;10524;48.132;8.518;2023-04-25T11:44:03;1.20;;;1.10;;
20725;SDS011;10524;48.132;8.518;2023-04-25T11:46:33;1.30;;;1.00;;
20725;SDS011;10524;48.132;8.518;2023-04-25T11:48:59;1.80;;;1.00;;
20725;SDS011;10524;48.132;8.518;2023-04-25T11:51:25;1.00;;;0.90;;
20725;SDS011;10524;48.132;8.518;2023-04-25T11:53:51;1.02;;;0.90;;
20725;SDS011;10524;48.132;8.518;2023-04-25T11:56:17;1.23;;;1.08;;
20725;SDS011;10524;48.132;8.518;2023-04-25T11:58:59;1.40;;;1.30;;
20725;SDS011;10524;48.132;8.518;2023-04-25T12:01:36;22.35;;;8.75;;
20725;SDS011;10524;48.132;8.518;2023-04-25T12:04:10;1.92;;;1.70;;
20725;SDS011;10524;48.132;8.518;2023-04-25T12:06:39;1.67;;;1.58;;
20725;SDS011;10524;48.132;8.518;2023-04-25T12:09:07;1.27;;;1.17;;
20725;SDS011;10524;48.132;8.518;2023-04-25T12:11:53;2.35;;;1.20;;
20725;SDS011;10524;48.132;8.518;2023-04-25T12:14:22;1.30;;;1.20;;
20725;SDS011;10524;48.132;8.518;2023-04-25T12:16:55;1.27;;;1.00;;
20725;SDS011;10524;48.132;8.518;2023-04-25T12:19:25;0.95;;;0.95;;
20725;SDS011;10524;48.132;8.518;2023-04-25T12:21:51;0.88;;;0.88;;
20725;SDS011;10524;48.132;8.518;2023-04-25T12:24:18;0.90;;;0.90;;
20725;SDS011;10524;48.132;8.518;2023-04-25T12:26:51;0.98;;;0.88;;
20725;SDS011;10524;48.132;8.518;2023-04-25T12:29:20;1.05;;;0.90;;
20725;SDS011;10524;48.132;8.518;2023-04-25T12:31:47;0.82;;;0.82;;
20725;SDS011;10524;48.132;8.518;2023-04-25T12:34:13;2.33;;;0.80;;
20725;SDS011;10524;48.132;8.518;2023-04-25T12:36:39;1.20;;;0.77;;
20725;SDS011;10524;48.132;8.518;2023-04-25T12:39:05;1.50;;;1.00;;
20725;SDS011;10524;48.132;8.518;2023-04-25T12:41:32;1.27;;;0.95;;
20725;SDS011;10524;48.132;8.518;2023-04-25T12:43:57;0.90;;;0.90;;
20725;SDS011;10524;48.132;8.518;2023-04-25T12:46:23;0.95;;;0.80;;
20725;SDS011;10524;48.132;8.518;2023-04-25T12:48:49;1.00;;;0.90;;
20725;SDS011;10524;48.132;8.518;2023-04-25T12:51:15;1.52;;;1.15;;
20725;SDS011;10524;48.132;8.518;2023-04-25T12:53:40;0.80;;;0.80;;
20725;SDS011;10524;48.132;8.518;2023-04-25T12:56:07;1.23;;;1.10;;
20725;SDS011;10524;48.132;8.518;2023-04-25T12:58:33;1.05;;;0.80;;
20725;SDS011;10524;48.132;8.518;2023-04-25T13:00:59;1.35;;;0.80;;
20725;SDS011;10524;48.132;8.518;2023-04-25T13:03:24;1.38;;;0.70;;
20725;SDS011;10524;48.132;8.518;2023-04-25T13:05:50;0.70;;;0.70;;
20725;SDS011;10524;48.132;8.518;2023-04-25T13:08:20;1.38;;;0.73;;
20725;SDS011;10524;48.132;8.518;2023-04-25T13:10:45;1.30;;;0.80;;
20725;SDS011;10524;48.132;8.518;2023-04-25T13:13:12;1.42;;;0.80;;
20725;SDS011;10524;48.132;8.518;2023-04-25T13:15:38;1.95;;;0.82;;
20725;SDS011;10524;48.132;8.518;2023-04-25T13:18:04;1.23;;;0.90;;
20725;SDS011;10524;48.132;8.518;2023-04-25T13:20:30;1.25;;;0.90;;
20725;SDS011;10524;48.132;8.518;2023-04-25T13:22:56;1.25;;;0.90;;
20725;SDS011;10524;48.132;8.518;2023-04-25T13:25:22;1.20;;;1.00;;
20725;SDS011;10524;48.132;8.518;2023-04-25T13:27:48;1.05;;;0.82;;
20725;SDS011;10524;48.132;8.518;2023-04-25T13:30:13;0.80;;;0.80;;
20725;SDS011;10524;48.132;8.518;2023-04-25T13:32:39;0.98;;;0.90;;
20725;SDS011;10524;48.132;8.518;2023-04-25T13:35:06;0.75;;;0.75;;
20725;SDS011;10524;48.132;8.518;2023-04-25T13:37:34;1.00;;;0.90;;
20725;SDS011;10524;48.132;8.518;2023-04-25T13:40:00;1.50;;;1.10;;
20725;SDS011;10524;48.132;8.518;2023-04-25T13:42:29;0.80;;;0.80;;
20725;SDS011;10524;48.132;8.518;2023-04-25T13:44:55;1.40;;;0.82;;
20725;SDS011;10524;48.132;8.518;2023-04-25T13:47:21;1.23;;;0.80;;
20725;SDS011;10524;48.132;8.518;2023-04-25T13:49:48;0.85;;;0.80;;
20725;SDS011;10524;48.132;8.518;2023-04-25T13:52:14;0.98;;;0.73;;
20725;SDS011;10524;48.132;8.518;2023-04-25T13:54:40;1.20;;;0.73;;
20725;SDS011;10524;48.132;8.518;2023-04-25T13:57:05;1.38;;;0.90;;
20725;SDS011;10524;48.132;8.518;2023-04-25T13:59:31;2.30;;;0.70;;
20725;SDS011;10524;48.132;8.518;2023-04-25T14:01:57;1.60;;;1.00;;
20725;SDS011;10524;48.132;8.518;2023-04-25T14:04:23;0.95;;;0.70;;
20725;SDS011;10524;48.132;8.518;2023-04-25T14:06:50;0.68;;;0.60;;
20725;SDS011;10524;48.132;8.518;2023-04-25T14:09:16;1.63;;;1.40;;
20725;SDS011;10524;48.132;8.518;2023-04-25T14:11:42;1.42;;;1.20;;
20725;SDS011;10524;48.132;8.518;2023-04-25T14:14:07;1.10;;;0.90;;
20725;SDS011;10524;48.132;8.518;2023-04-25T14:16:33;1.10;;;1.00;;
20725;SDS011;10524;48.132;8.518;2023-04-25T14:19:00;1.50;;;1.40;;
20725;SDS011;10524;48.132;8.518;2023-04-25T14:21:26;2.60;;;1.70;;
20725;SDS011;10524;48.132;8.518;2023-04-25T14:23:53;2.03;;;1.70;;
20725;SDS011;10524;48.132;8.518;2023-04-25T14:26:19;1.23;;;1.10;;
20725;SDS011;10524;48.132;8.518;2023-04-25T14:28:44;1.10;;;1.00;;
20725;SDS011;10524;48.132;8.518;2023-04-25T14:31:10;0.70;;;0.70;;
20725;SDS011;10524;48.132;8.518;2023-04-25T14:33:35;0.90;;;0.80;;
20725;SDS011;10524;48.132;8.518;2023-04-25T14:36:04;1.00;;;1.00;;
20725;SDS011;10524;48.132;8.518;2023-04-25T14:38:30;1.00;;;0.90;;
20725;SDS011;10524;48.132;8.518;2023-04-25T14:40:56;1.23;;;0.98;;
20725;SDS011;10524;48.132;8.518;2023-04-25T14:43:21;1.30;;;1.00;;
20725;SDS011;10524;48.132;8.518;2023-04-25T14:45:47;1.17;;;1.08;;
20725;SDS011;10524;48.132;8.518;2023-04-25T14:48:12;1.52;;;1.35;;
20725;SDS011;10524;48.132;8.518;2023-04-25T14:50:38;1.25;;;1.15;;
20725;SDS011;10524;48.132;8.518;2023-04-25T14:53:04;1.25;;;1.15;;
20725;SDS011;10524;48.132;8.518;2023-04-25T14:55:30;1.50;;;1.13;;